Time;durP1;ratioP1;P1;durP2;ratioP2;P2;SDS_P1;SDS_P2;PMS_P1;PMS_P2;Temp;Humidity;BMP_temperature;BMP_pressure;BME280_temperature;BME280_humidity;BME280_pressure;Samples;Min_cycle;Max_cycle;Signal;HPM_P1;HPM_P2
2023/01/07 00:01:45;;;;;;;22.15;10.82;;;;;;;2.63;89.66;95376.94;5137858;27;20216;-86
2023/01/07 00:04:15;;;;;;;22.35;10.45;;;;;;;2.64;89.80;95379.34;5134661;27;20212;-83
2023/01/07 00:06:44;;;;;;;19.30;10.45;;;;;;;2.51;90.27;95366.44;5131491;27;20208;-85
2023/01/07 00:09:15;;;;;;;21.60;10.13;;;;;;;2.52;90.11;95372.59;5119132;27;20200;-87
2023/01/07 00:11:42;;;;;;;22.95;10.10;;;;;;;2.52;90.49;95370.72;5133525;27;20192;-88
2023/01/07 00:14:14;;;;;;;18.73;9.73;;;;;;;2.55;90.52;95380.91;5121163;27;20224;-88
2023/01/07 00:16:42;;;;;;;19.00;10.10;;;;;;;2.52;90.63;95381.41;5125759;27;20316;-85
2023/01/07 00:19:14;;;;;;;21.50;10.20;;;;;;;2.49;90.68;95376.59;5136046;27;20201;-89
2023/01/07 00:21:41;;;;;;;2.42;1.80;;;;;;;2.39;90.96;95389.88;5133871;27;20192;-84
2023/01/07 00:24:12;;;;;;;11.52;3.33;;;;;;;2.33;91.06;95382.88;5118836;28;20209;-86
2023/01/07 00:26:40;;;;;;;5.47;2.58;;;;;;;2.38;91.21;95375.72;5120255;28;20194;-87
2023/01/07 00:29:07;;;;;;;2.72;2.17;;;;;;;2.36;91.34;95374.34;5126899;28;20198;-86
2023/01/07 00:31:36;;;;;;;7.07;2.97;;;;;;;2.46;91.22;95377.13;5131313;28;20228;-86
2023/01/07 00:34:09;;;;;;;4.82;2.70;;;;;;;2.41;91.22;95382.41;5135538;28;20228;-86
2023/01/07 00:36:40;;;;;;;3.08;2.25;;;;;;;2.35;91.42;95356.72;5120076;28;20193;-86
2023/01/07 00:39:08;;;;;;;12.40;2.90;;;;;;;2.33;91.67;95380.22;5123983;28;20198;-86
2023/01/07 00:41:39;;;;;;;5.38;1.88;;;;;;;2.35;91.63;95370.88;5128196;28;20204;-88
2023/01/07 00:44:07;;;;;;;4.00;1.83;;;;;;;2.34;91.70;95385.31;5123755;28;20332;-87
2023/01/07 00:46:34;;;;;;;3.65;2.33;;;;;;;2.29;92.00;95387.16;5133840;28;20247;-86
2023/01/07 00:49:02;;;;;;;4.03;2.53;;;;;;;2.29;91.90;95392.50;5123441;28;20197;-86
2023/01/07 00:51:29;;;;;;;4.65;2.92;;;;;;;2.25;92.64;95397.53;5133591;28;20552;-88
2023/01/07 00:53:57;;;;;;;8.25;4.10;;;;;;;2.25;92.82;95392.19;5136539;27;20228;-87
2023/01/07 00:56:24;;;;;;;2.25;2.05;;;;;;;2.16;92.92;95400.97;5141393;27;20205;-88
2023/01/07 00:58:50;;;;;;;5.38;2.55;;;;;;;2.25;93.14;95396.75;5140657;27;20242;-87
2023/01/07 01:01:17;;;;;;;2.80;2.13;;;;;;;2.30;92.54;95394.13;5136850;27;20243;-89
2023/01/07 01:03:44;;;;;;;3.70;2.38;;;;;;;2.30;92.89;95389.56;5134121;27;20208;-87
2023/01/07 01:06:13;;;;;;;6.47;2.67;;;;;;;2.33;93.65;95396.25;5128137;27;20204;-87
2023/01/07 01:08:41;;;;;;;11.90;3.42;;;;;;;2.28;93.45;95406.94;5128941;27;20202;-87
2023/01/07 01:11:11;;;;;;;8.32;2.60;;;;;;;2.14;93.39;95419.91;5128628;27;20291;-88
2023/01/07 01:13:38;;;;;;;6.68;3.08;;;;;;;2.10;93.58;95411.59;5129945;27;20221;-87
2023/01/07 01:16:08;;;;;;;4.20;2.25;;;;;;;2.18;92.95;95413.00;5144729;27;20297;-88
2023/01/07 01:18:35;;;;;;;3.47;2.10;;;;;;;2.19;93.21;95411.16;5144966;27;20316;-88
2023/01/07 01:21:04;;;;;;;3.97;2.30;;;;;;;2.12;93.08;95398.78;5144510;27;20222;-88
2023/01/07 01:23:30;;;;;;;4.28;1.60;;;;;;;2.19;92.67;95400.44;5128723;27;20194;-88
2023/01/07 01:26:03;;;;;;;4.10;2.20;;;;;;;2.16;92.51;95398.28;5133446;27;20201;-88
2023/01/07 01:28:31;;;;;;;7.70;3.47;;;;;;;2.07;92.91;95406.75;5137945;27;20221;-87
2023/01/07 01:30:58;;;;;;;1.73;1.55;;;;;;;2.08;92.96;95413.72;5143598;27;20220;-87
2023/01/07 01:33:25;;;;;;;4.35;2.05;;;;;;;2.13;92.56;95400.41;5143665;27;20707;-86
2023/01/07 01:35:52;;;;;;;5.25;2.28;;;;;;;2.18;92.93;95406.84;5133259;27;20226;-87
2023/01/07 01:38:18;;;;;;;3.47;2.03;;;;;;;2.22;92.61;95407.94;5140185;27;20220;-86
2023/01/07 01:40:45;;;;;;;9.48;2.17;;;;;;;2.26;92.44;95401.03;5137899;27;20231;-87
2023/01/07 01:43:31;;;;;;;14.52;6.80;;;;;;;2.22;92.34;95402.59;5146748;27;20201;-87
2023/01/07 01:46:02;;;;;;;14.93;7.45;;;;;;;2.21;92.48;95400.97;5145940;27;20223;-87
2023/01/07 01:48:29;;;;;;;18.30;9.25;;;;;;;2.23;92.15;95388.16;5142914;27;20204;-88
2023/01/07 01:50:56;;;;;;;28.83;11.63;;;;;;;2.15;91.58;95392.13;5141410;27;20242;-86
2023/01/07 01:53:26;;;;;;;16.10;8.05;;;;;;;2.05;91.93;95411.53;5132685;27;20638;-87
2023/01/07 01:56:02;;;;;;;15.38;6.78;;;;;;;2.06;92.68;95402.47;5137604;27;20193;-87
2023/01/07 01:58:34;;;;;;;25.08;10.80;;;;;;;2.08;92.18;95397.69;5138548;27;20690;-87
2023/01/07 02:01:01;;;;;;;2.17;1.50;;;;;;;2.13;92.13;95384.38;5142262;27;20196;-87
2023/01/07 02:03:29;;;;;;;4.65;2.35;;;;;;;2.04;92.55;95385.91;5130076;27;20198;-88
2023/01/07 02:05:57;;;;;;;6.65;2.15;;;;;;;2.21;92.49;95387.63;5128900;27;20201;-88
2023/01/07 02:08:24;;;;;;;1.95;1.30;;;;;;;2.25;90.32;95386.84;5131050;27;20197;-87
2023/01/07 02:11:02;;;;;;;2.85;1.73;;;;;;;1.83;91.84;95386.78;5124677;27;20208;-88
2023/01/07 02:13:38;;;;;;;4.50;2.03;;;;;;;1.90;92.48;95379.38;5142142;27;20261;-88
2023/01/07 02:16:13;;;;;;;3.40;1.63;;;;;;;1.79;92.39;95386.47;5132356;27;20266;-87
2023/01/07 02:18:51;;;;;;;3.92;2.53;;;;;;;1.75;92.73;95389.94;5147172;27;20608;-87
2023/01/07 02:21:31;;;;;;;5.53;2.85;;;;;;;1.73;93.05;95384.03;5142622;27;20620;-86
2023/01/07 02:24:49;;;;;;;4.50;2.10;;;;;;;1.75;93.57;95381.91;5139558;27;20186;-87
2023/01/07 02:27:26;;;;;;;12.13;1.88;;;;;;;1.65;92.91;95376.47;5127607;27;20213;-87
2023/01/07 02:30:24;;;;;;;5.72;2.53;;;;;;;1.70;92.83;95379.19;5147129;27;20216;-87
2023/01/07 02:33:16;;;;;;;4.32;1.58;;;;;;;1.78;92.71;95381.38;5133245;27;20223;-87
2023/01/07 02:36:06;;;;;;;1.90;1.35;;;;;;;1.71;93.48;95375.47;5132733;27;20211;-87
2023/01/07 02:38:41;;;;;;;3.45;2.15;;;;;;;1.52;93.07;95382.22;5151409;27;20189;-88
2023/01/07 02:41:17;;;;;;;12.07;6.63;;;;;;;1.52;93.65;95384.88;5148166;27;20185;-87
2023/01/07 02:43:53;;;;;;;7.95;2.63;;;;;;;1.50;94.07;95379.81;5135928;27;20200;-87
2023/01/07 02:46:23;;;;;;;7.65;2.33;;;;;;;1.40;94.27;95380.50;5149542;27;20285;-87
2023/01/07 02:48:58;;;;;;;4.57;2.85;;;;;;;1.24;94.01;95391.25;5149757;27;20786;-88
2023/01/07 02:51:34;;;;;;;4.82;2.17;;;;;;;1.15;94.88;95380.22;5155537;27;20267;-88
2023/01/07 02:54:10;;;;;;;14.20;6.70;;;;;;;1.28;94.80;95387.84;5149827;27;20220;-87
2023/01/07 02:56:56;;;;;;;11.00;6.25;;;;;;;0.88;94.85;95356.19;5131193;28;20245;-88
2023/01/07 02:59:44;;;;;;;13.13;7.22;;;;;;;1.01;95.48;95397.69;5147609;27;20284;-87
2023/01/07 03:02:25;;;;;;;9.80;6.00;;;;;;;1.14;95.80;95385.81;5153709;27;20197;-88
2023/01/07 03:05:13;;;;;;;14.52;6.80;;;;;;;0.93;95.71;95352.78;5153653;27;20197;-88
2023/01/07 03:07:55;;;;;;;10.82;6.55;;;;;;;1.21;96.81;95389.91;5134913;28;20205;-88
2023/01/07 03:10:30;;;;;;;10.38;6.22;;;;;;;1.31;96.26;95386.53;5135221;28;20182;-88
2023/01/07 03:13:03;;;;;;;11.15;6.65;;;;;;;1.36;95.95;95398.09;5135601;28;20185;-87
2023/01/07 03:15:36;;;;;;;3.20;1.88;;;;;;;1.39;96.10;95389.56;5131913;28;20293;-89
2023/01/07 03:18:06;;;;;;;2.60;1.35;;;;;;;1.59;96.08;95399.66;5127897;28;20755;-87
2023/01/07 03:20:38;;;;;;;9.73;1.55;;;;;;;1.59;95.81;95385.50;5128618;28;20196;-86
2023/01/07 03:23:09;;;;;;;3.25;1.65;;;;;;;1.57;95.71;95368.91;5127104;28;20231;-88
2023/01/07 03:25:40;;;;;;;4.35;1.40;;;;;;;1.68;95.43;95357.28;5122791;28;20216;-88
2023/01/07 03:28:09;;;;;;;3.58;2.28;;;;;;;1.64;94.29;95366.88;5122224;28;20292;-88
2023/01/07 03:30:44;;;;;;;2.47;1.48;;;;;;;1.73;93.29;95390.19;5127938;28;20221;-87
2023/01/07 03:33:16;;;;;;;2.65;1.40;;;;;;;1.52;92.97;95387.56;5129130;28;20204;-88
2023/01/07 03:35:48;;;;;;;4.78;1.83;;;;;;;1.70;93.70;95390.69;5120320;28;20200;-87
2023/01/07 03:38:17;;;;;;;1.02;0.93;;;;;;;1.57;92.63;95380.41;5110618;28;20201;-87
2023/01/07 03:40:44;;;;;;;3.45;2.10;;;;;;;1.56;92.88;95388.66;5101880;28;20201;-87
2023/01/07 03:43:12;;;;;;;2.33;1.30;;;;;;;1.66;92.85;95394.91;5108463;28;20255;-87
2023/01/07 03:45:39;;;;;;;1.58;1.00;;;;;;;1.70;93.78;95398.69;5101516;28;20209;-87
2023/01/07 03:48:11;;;;;;;3.42;1.55;;;;;;;1.78;93.16;95389.41;5111937;28;20209;-86
2023/01/07 03:50:38;;;;;;;2.75;1.77;;;;;;;1.97;92.67;95395.19;5111783;28;20274;-88
2023/01/07 03:53:06;;;;;;;4.25;1.45;;;;;;;1.92;92.40;95398.59;5111258;28;20342;-86
2023/01/07 03:55:33;;;;;;;1.73;1.58;;;;;;;2.09;92.28;95398.47;5110517;28;20715;-87
2023/01/07 03:58:00;;;;;;;2.70;1.38;;;;;;;2.05;92.29;95400.84;5101352;28;20576;-87
2023/01/07 04:00:27;;;;;;;4.00;1.85;;;;;;;2.16;91.73;95398.28;5097529;28;20198;-87
2023/01/07 04:02:53;;;;;;;3.90;2.33;;;;;;;2.20;91.88;95400.16;5103743;28;20550;-86
2023/01/07 04:05:20;;;;;;;8.52;2.25;;;;;;;2.20;91.07;95394.03;5103289;28;20210;-86
2023/01/07 04:07:47;;;;;;;3.00;1.90;;;;;;;2.28;90.88;95406.94;5096588;28;20629;-86
2023/01/07 04:10:15;;;;;;;2.83;2.00;;;;;;;2.25;91.53;95407.44;5096709;28;20245;-86
2023/01/07 04:12:42;;;;;;;0.95;0.93;;;;;;;2.37;89.71;95410.72;5089957;28;20198;-86
2023/01/07 04:15:09;;;;;;;2.22;1.55;;;;;;;2.14;90.71;95418.06;5103669;28;20354;-86
2023/01/07 04:17:36;;;;;;;3.45;1.67;;;;;;;2.17;90.98;95415.94;5110242;28;20201;-86
2023/01/07 04:20:06;;;;;;;1.85;1.17;;;;;;;2.21;89.93;95417.00;5096406;28;20202;-86
2023/01/07 04:22:33;;;;;;;1.02;0.93;;;;;;;2.17;89.37;95415.94;5101942;28;20655;-86
2023/01/07 04:24:59;;;;;;;3.72;1.75;;;;;;;2.29;89.80;95420.03;5103733;28;20649;-86
2023/01/07 04:27:29;;;;;;;1.52;1.13;;;;;;;2.25;89.95;95423.47;5097067;28;20266;-85
2023/01/07 04:29:55;;;;;;;2.90;2.05;;;;;;;2.34;89.75;95417.38;5102424;28;20396;-85
2023/01/07 04:32:22;;;;;;;2.22;1.50;;;;;;;2.46;89.48;95417.22;5117006;28;20197;-85
2023/01/07 04:34:49;;;;;;;11.27;1.83;;;;;;;2.40;89.15;95419.03;5102670;28;20241;-86
2023/01/07 04:37:16;;;;;;;1.42;0.93;;;;;;;2.41;89.34;95411.84;5117024;28;20651;-85
2023/01/07 04:39:42;;;;;;;6.25;1.33;;;;;;;2.40;89.52;95418.25;5103400;28;20206;-85
2023/01/07 04:42:09;;;;;;;3.05;1.63;;;;;;;2.46;89.58;95426.03;5107879;28;20202;-86
2023/01/07 04:44:37;;;;;;;4.80;1.65;;;;;;;2.56;89.84;95429.84;5110460;28;20201;-86
2023/01/07 04:47:04;;;;;;;3.15;1.60;;;;;;;2.49;90.41;95419.34;5105425;28;20250;-86
2023/01/07 04:49:31;;;;;;;2.10;1.83;;;;;;;2.55;89.72;95418.34;5102994;28;20202;-85
2023/01/07 04:51:57;;;;;;;2.45;1.48;;;;;;;2.40;89.60;95423.59;5116431;28;20712;-85
2023/01/07 04:54:24;;;;;;;7.05;2.17;;;;;;;2.41;90.09;95417.19;5099116;28;20615;-85
2023/01/07 04:56:51;;;;;;;8.20;1.60;;;;;;;2.57;89.27;95418.91;5100556;28;20195;-85
2023/01/07 04:59:17;;;;;;;1.33;1.02;;;;;;;2.49;89.67;95430.06;5109575;28;20267;-85
2023/01/07 05:01:46;;;;;;;2.22;1.90;;;;;;;2.49;89.52;95430.06;5106339;28;20761;-87
2023/01/07 05:04:12;;;;;;;2.78;1.55;;;;;;;2.49;89.65;95427.38;5113576;28;20206;-87
2023/01/07 05:06:39;;;;;;;2.28;1.63;;;;;;;2.23;90.14;95428.25;5106396;28;20278;-85
2023/01/07 05:09:06;;;;;;;4.28;1.73;;;;;;;2.27;90.22;95426.69;5102467;28;20205;-86
2023/01/07 05:11:33;;;;;;;1.85;1.35;;;;;;;2.27;90.37;95418.69;5106470;28;20248;-85
2023/01/07 05:14:00;;;;;;;2.70;1.63;;;;;;;2.22;89.40;95423.97;5099580;28;20278;-85
2023/01/07 05:16:27;;;;;;;2.97;2.17;;;;;;;2.27;89.19;95422.16;5110686;28;20704;-85
2023/01/07 05:18:55;;;;;;;1.77;1.10;;;;;;;2.11;89.60;95429.25;5107812;28;20206;-85
2023/01/07 05:21:22;;;;;;;2.42;1.67;;;;;;;2.05;89.82;95429.47;5109142;28;20198;-85
2023/01/07 05:23:49;;;;;;;5.13;1.13;;;;;;;1.86;90.90;95434.38;5107773;28;20206;-86
2023/01/07 05:26:15;;;;;;;3.10;1.73;;;;;;;1.96;91.73;95442.47;5107014;28;20197;-85
2023/01/07 05:28:42;;;;;;;6.63;1.65;;;;;;;1.86;91.54;95442.38;5111179;28;21324;-85
2023/01/07 05:31:09;;;;;;;4.35;1.73;;;;;;;1.92;92.22;95440.53;5107286;28;20534;-86
2023/01/07 05:33:36;;;;;;;5.63;1.70;;;;;;;1.77;92.34;95449.25;5103905;28;20669;-85
2023/01/07 05:36:07;;;;;;;5.32;2.28;;;;;;;1.86;92.91;95447.72;5106326;28;20325;-85
2023/01/07 05:38:34;;;;;;;4.43;1.65;;;;;;;1.97;92.59;95453.97;5105855;28;20201;-86
2023/01/07 05:41:01;;;;;;;9.93;3.13;;;;;;;2.05;92.48;95446.28;5102887;28;20194;-86
2023/01/07 05:43:28;;;;;;;2.45;1.80;;;;;;;2.03;91.34;95440.41;5104770;28;20197;-85
2023/01/07 05:45:56;;;;;;;2.47;2.17;;;;;;;1.96;90.80;95439.00;5103472;28;20209;-85
2023/01/07 05:48:23;;;;;;;1.95;1.67;;;;;;;2.03;90.54;95448.44;5106229;28;20198;-86
2023/01/07 05:50:50;;;;;;;4.10;2.00;;;;;;;2.05;91.21;95440.94;5099738;28;20219;-86
2023/01/07 05:53:18;;;;;;;7.20;2.22;;;;;;;2.03;91.26;95439.59;5106468;28;20206;-85
2023/01/07 05:55:45;;;;;;;5.68;2.30;;;;;;;2.12;90.77;95446.09;5093747;28;20226;-85
2023/01/07 05:58:12;;;;;;;4.95;2.03;;;;;;;2.09;91.21;95442.03;5104671;28;20217;-85
2023/01/07 06:00:39;;;;;;;3.40;2.47;;;;;;;2.18;91.53;95441.59;5099687;28;20285;-85
2023/01/07 06:03:06;;;;;;;2.03;1.70;;;;;;;2.03;90.77;95448.44;5105673;28;20259;-85
2023/01/07 06:05:32;;;;;;;5.93;2.38;;;;;;;2.09;91.69;95446.59;5106382;28;20198;-85
2023/01/07 06:07:59;;;;;;;2.60;1.55;;;;;;;2.22;91.26;95453.38;5092495;28;20202;-85
2023/01/07 06:10:27;;;;;;;5.30;1.95;;;;;;;2.35;91.08;95455.63;5106330;28;20259;-86
2023/01/07 06:12:54;;;;;;;3.97;2.15;;;;;;;2.51;90.62;95454.69;5100900;28;20609;-86
2023/01/07 06:15:21;;;;;;;5.18;2.13;;;;;;;2.67;89.50;95448.38;5098522;28;20831;-86
2023/01/07 06:17:47;;;;;;;3.00;2.05;;;;;;;2.89;89.49;95444.75;5112926;28;20660;-87
2023/01/07 06:20:14;;;;;;;4.63;2.72;;;;;;;3.39;88.02;95455.72;5098602;28;20259;-85
2023/01/07 06:22:43;;;;;;;6.55;3.05;;;;;;;4.07;85.15;95445.72;5112797;28;20676;-85
2023/01/07 06:25:11;;;;;;;5.05;2.58;;;;;;;4.64;81.94;95441.97;5099903;28;20198;-86
2023/01/07 06:27:40;;;;;;;3.33;2.08;;;;;;;5.12;79.40;95443.22;5103314;28;20209;-86
2023/01/07 06:30:08;;;;;;;9.98;3.88;;;;;;;5.50;77.18;95447.09;5095418;28;20245;-86
2023/01/07 06:32:40;;;;;;;30.80;3.75;;;;;;;5.56;76.48;95450.59;5103141;28;20290;-86
2023/01/07 06:35:09;;;;;;;8.32;2.83;;;;;;;5.74;75.71;95435.72;5106447;28;20249;-86
2023/01/07 06:37:36;;;;;;;3.60;1.98;;;;;;;5.92;74.63;95443.16;5103693;28;20643;-87
2023/01/07 06:40:03;;;;;;;6.22;2.80;;;;;;;5.87;74.09;95448.56;5108302;28;20202;-88
2023/01/07 06:42:42;;;;;;;10.10;3.45;;;;;;;5.39;76.24;95450.91;5103376;28;20197;-88
2023/01/07 06:45:13;;;;;;;4.90;3.03;;;;;;;5.08;77.01;95449.38;5092736;28;20206;-86
2023/01/07 06:47:47;;;;;;;5.80;3.13;;;;;;;4.69;79.38;95451.88;5092167;28;20561;-85
2023/01/07 06:50:14;;;;;;;4.68;3.15;;;;;;;4.48;80.96;95445.75;5091432;28;20311;-86
2023/01/07 06:52:44;;;;;;;8.15;3.38;;;;;;;4.26;81.80;95454.84;5107045;28;20198;-86
2023/01/07 06:55:11;;;;;;;13.02;4.38;;;;;;;6.67;100.00;95449.09;5111879;28;20229;-79
2023/01/07 06:57:39;;;;;;;7.07;4.40;;;;;;;6.62;97.26;95451.81;5099971;28;20778;-78
2023/01/07 07:00:07;;;;;;;9.75;5.22;;;;;;;7.51;92.60;95442.31;5093633;28;20190;-78
2023/01/07 07:02:34;;;;;;;10.93;4.88;;;;;;;7.12;87.69;95443.25;5103876;28;20665;-78
2023/01/07 07:05:00;;;;;;;14.90;4.80;;;;;;;7.31;90.20;95434.44;5101253;28;20205;-78
2023/01/07 07:07:31;;;;;;;6.00;3.20;;;;;;;6.94;86.33;95443.19;5097472;28;20263;-85
2023/01/07 07:10:06;;;;;;;24.15;4.97;;;;;;;5.97;80.16;95464.66;5100190;28;20194;-86
2023/01/07 07:12:33;;;;;;;9.70;5.18;;;;;;;5.42;80.44;95455.75;5104816;28;20251;-85
2023/01/07 07:15:12;;;;;;;11.75;4.50;;;;;;;4.66;81.27;95450.53;5103453;28;20321;-86
2023/01/07 07:17:38;;;;;;;8.35;4.10;;;;;;;4.49;82.23;95463.44;5095246;28;20193;-86
2023/01/07 07:20:14;;;;;;;2.50;1.73;;;;;;;4.26;82.57;95465.56;5105231;28;20223;-87
2023/01/07 07:22:47;;;;;;;5.00;3.08;;;;;;;4.25;82.58;95463.94;5099985;28;20193;-86
2023/01/07 07:25:21;;;;;;;5.32;2.67;;;;;;;4.12;82.78;95461.78;5097207;28;20205;-87
2023/01/07 07:27:51;;;;;;;4.15;2.60;;;;;;;4.12;83.85;95472.53;5109454;28;20206;-85
2023/01/07 07:30:19;;;;;;;5.10;2.70;;;;;;;4.07;83.69;95469.84;5109292;28;20687;-85
2023/01/07 07:32:48;;;;;;;6.43;3.40;;;;;;;3.87;83.65;95467.09;5106647;28;20201;-86
2023/01/07 07:35:15;;;;;;;2.60;2.13;;;;;;;3.90;83.97;95469.28;5112588;28;20232;-86
2023/01/07 07:37:43;;;;;;;6.72;2.67;;;;;;;3.83;83.75;95466.03;5098258;28;20595;-87
2023/01/07 07:40:11;;;;;;;3.30;2.28;;;;;;;3.87;84.31;95462.56;5107360;28;20194;-83
2023/01/07 07:42:39;;;;;;;5.00;3.03;;;;;;;4.03;83.48;95459.91;5101031;28;20206;-85
2023/01/07 07:45:07;;;;;;;4.60;3.03;;;;;;;4.26;83.64;95459.41;5110832;28;20729;-87
2023/01/07 07:47:35;;;;;;;5.15;2.00;;;;;;;4.26;82.75;95454.84;5102639;28;20332;-85
2023/01/07 07:50:02;;;;;;;6.43;2.95;;;;;;;4.27;82.74;95461.81;5103764;28;20636;-89
2023/01/07 07:52:29;;;;;;;5.53;2.97;;;;;;;4.41;82.41;95461.28;5104467;28;20204;-85
2023/01/07 07:54:56;;;;;;;4.03;2.45;;;;;;;4.52;82.16;95460.19;5105154;28;20202;-83
2023/01/07 07:57:22;;;;;;;5.03;3.00;;;;;;;4.42;81.69;95457.53;5103099;28;20222;-80
2023/01/07 07:59:49;;;;;;;2.60;1.40;;;;;;;4.46;81.78;95464.78;5106826;28;20209;-83
2023/01/07 08:02:18;;;;;;;2.40;1.83;;;;;;;4.50;81.96;95454.31;5109920;28;20664;-84
2023/01/07 08:04:46;;;;;;;4.78;2.92;;;;;;;4.54;81.98;95461.53;5110428;28;20571;-82
2023/01/07 08:07:13;;;;;;;5.95;1.63;;;;;;;4.60;81.92;95465.84;5106691;28;20214;-81
2023/01/07 08:09:40;;;;;;;4.47;2.33;;;;;;;4.78;80.54;95461.81;5101295;28;21115;-79
2023/01/07 08:12:06;;;;;;;8.65;3.97;;;;;;;4.97;79.69;95465.53;5089744;28;20212;-84
2023/01/07 08:14:34;;;;;;;14.23;3.88;;;;;;;5.18;79.94;95460.13;5105370;28;20206;-85
2023/01/07 08:17:00;;;;;;;8.27;3.28;;;;;;;4.88;79.16;95464.50;5103592;28;20248;-85
2023/01/07 08:19:27;;;;;;;3.53;2.58;;;;;;;4.89;79.59;95468.78;5106279;28;20198;-84
2023/01/07 08:21:55;;;;;;;2.92;1.90;;;;;;;4.91;79.03;95463.16;5102981;28;20197;-83
2023/01/07 08:24:22;;;;;;;3.88;2.83;;;;;;;5.14;79.65;95462.56;5104481;28;20223;-87
2023/01/07 08:26:49;;;;;;;7.10;3.85;;;;;;;5.31;78.13;95462.25;5106632;28;20197;-83
2023/01/07 08:29:16;;;;;;;5.43;3.00;;;;;;;5.32;78.12;95464.66;5106945;28;20695;-83
2023/01/07 08:31:42;;;;;;;6.28;3.47;;;;;;;5.37;77.93;95463.81;5111294;28;20629;-85
2023/01/07 08:34:09;;;;;;;8.77;3.58;;;;;;;5.21;78.88;95446.13;5115175;28;20202;-84
2023/01/07 08:36:36;;;;;;;4.50;2.72;;;;;;;5.26;78.28;95456.88;5113170;28;20236;-87
2023/01/07 08:39:13;;;;;;;6.57;3.33;;;;;;;5.42;77.68;95450.38;5105162;28;20218;-86
2023/01/07 08:41:40;;;;;;;6.63;3.03;;;;;;;5.71;77.58;95453.22;5110509;28;20216;-86
2023/01/07 08:44:07;;;;;;;6.53;2.38;;;;;;;5.62;76.43;95461.03;5106734;28;20202;-84
2023/01/07 08:46:33;;;;;;;12.90;2.42;;;;;;;5.61;76.81;95454.03;5113208;28;20213;-84
2023/01/07 08:49:00;;;;;;;5.05;3.00;;;;;;;5.71;76.14;95454.00;5113137;28;20205;-84
2023/01/07 08:51:31;;;;;;;7.65;3.67;;;;;;;5.51;76.50;95454.09;5098862;28;20197;-87
2023/01/07 08:53:58;;;;;;;9.55;3.22;;;;;;;5.71;76.48;95448.63;5101472;28;20228;-88
2023/01/07 08:56:26;;;;;;;3.70;2.45;;;;;;;5.83;75.65;95455.56;5102362;28;20305;-87
2023/01/07 08:58:53;;;;;;;14.48;5.75;;;;;;;5.85;75.20;95448.03;5106659;28;20198;-83
2023/01/07 09:01:19;;;;;;;9.07;3.70;;;;;;;5.78;75.74;95452.88;5108785;28;20227;-83
2023/01/07 09:03:46;;;;;;;4.57;2.60;;;;;;;5.91;75.24;95444.25;5112746;28;20201;-85
2023/01/07 09:06:13;;;;;;;5.05;3.63;;;;;;;6.16;75.02;95444.09;5108837;28;20202;-82
2023/01/07 09:08:40;;;;;;;7.40;3.30;;;;;;;6.28;74.77;95436.50;5112329;28;20335;-86
2023/01/07 09:11:09;;;;;;;8.55;4.15;;;;;;;6.54;74.45;95433.59;5092219;28;20244;-82
2023/01/07 09:13:37;;;;;;;7.40;4.03;;;;;;;6.71;74.31;95424.00;5105614;28;20198;-85
2023/01/07 09:16:04;;;;;;;13.90;3.78;;;;;;;6.75;74.01;95418.84;5109382;28;20301;-83
2023/01/07 09:18:31;;;;;;;4.13;3.13;;;;;;;6.97;73.39;95411.09;5101876;28;20202;-83
2023/01/07 09:20:57;;;;;;;5.80;3.45;;;;;;;7.11;71.83;95403.94;5107947;28;20198;-82
2023/01/07 09:23:24;;;;;;;16.58;8.07;;;;;;;7.03;71.66;95399.19;5111761;28;20243;-82
2023/01/07 09:25:51;;;;;;;13.68;5.05;;;;;;;6.68;71.79;95402.25;5113715;28;20695;-84
2023/01/07 09:28:18;;;;;;;7.82;3.92;;;;;;;6.76;72.41;95393.53;5101185;28;20222;-81
2023/01/07 09:30:46;;;;;;;6.22;3.58;;;;;;;7.05;72.22;95397.00;5106464;28;20223;-82
2023/01/07 09:33:13;;;;;;;5.78;3.25;;;;;;;6.93;71.56;95393.91;5092685;28;20209;-80
2023/01/07 09:35:40;;;;;;;7.60;4.20;;;;;;;7.02;71.26;95396.78;5101164;28;20225;-82
2023/01/07 09:38:07;;;;;;;16.23;5.32;;;;;;;7.20;72.19;95387.16;5099100;28;20206;-83
2023/01/07 09:40:37;;;;;;;14.77;5.93;;;;;;;7.27;72.05;95377.63;5104007;28;20610;-82
2023/01/07 09:43:09;;;;;;;7.70;3.80;;;;;;;7.27;70.49;95383.00;5105904;28;20202;-81
2023/01/07 09:45:40;;;;;;;9.65;5.65;;;;;;;7.24;70.86;95382.81;5092829;28;20224;-82
2023/01/07 09:48:21;;;;;;;9.68;4.00;;;;;;;7.31;70.23;95367.06;5097346;28;20194;-83
2023/01/07 09:50:53;;;;;;;9.07;4.68;;;;;;;7.44;70.58;95358.28;5114406;28;20710;-82
2023/01/07 09:53:24;;;;;;;19.75;6.25;;;;;;;7.63;72.08;95358.31;5101592;28;20201;-83
2023/01/07 09:55:53;;;;;;;14.05;5.80;;;;;;;7.91;69.67;95351.16;5098346;28;20260;-81
2023/01/07 09:58:21;;;;;;;12.45;5.95;;;;;;;8.20;67.79;95343.66;5100907;28;20599;-81
2023/01/07 10:00:57;;;;;;;10.88;5.30;;;;;;;8.25;68.75;95335.50;5106296;28;20246;-83
2023/01/07 10:03:37;;;;;;;11.45;5.85;;;;;;;8.43;67.42;95328.50;5102431;28;20254;-83
2023/01/07 10:06:11;;;;;;;10.32;4.97;;;;;;;8.54;67.07;95325.31;5110337;28;20201;-83
2023/01/07 10:08:50;;;;;;;9.07;4.43;;;;;;;8.45;65.93;95305.50;5113574;28;20190;-80
2023/01/07 10:11:28;;;;;;;11.27;5.03;;;;;;;8.05;67.26;95284.59;5100548;28;20597;-80
2023/01/07 10:14:34;;;;;;;10.05;5.88;;;;;;;8.06;67.71;95323.97;5095996;28;20201;-81
2023/01/07 10:20:29;;;;;;;14.63;6.72;;;;;;;8.23;67.99;95281.00;5143521;27;1413485;-82
2023/01/07 10:23:07;;;;;;;13.27;6.00;;;;;;;8.59;66.42;95277.72;5159707;27;20196;-86
2023/01/07 10:25:41;;;;;;;15.57;6.30;;;;;;;8.76;65.63;95276.00;5157046;27;20557;-85
2023/01/07 10:28:15;;;;;;;13.50;6.28;;;;;;;9.03;65.82;95266.28;5164042;27;20224;-87
2023/01/07 10:30:54;;;;;;;11.13;5.72;;;;;;;9.20;65.56;95293.50;5140349;27;20188;-84
2023/01/07 10:33:55;;;;;;;11.23;6.15;;;;;;;8.64;65.84;95296.50;5145289;27;20200;-88
2023/01/07 10:36:40;;;;;;;20.00;11.32;;;;;;;8.79;66.49;95282.72;5136675;27;20216;-84
2023/01/07 10:39:35;;;;;;;22.33;11.75;;;;;;;8.99;65.52;95273.44;5136823;27;20815;-84
2023/01/07 10:42:10;;;;;;;13.55;6.78;;;;;;;9.00;66.52;95246.09;5131749;28;20205;-88
2023/01/07 10:45:00;;;;;;;23.67;12.80;;;;;;;9.03;65.53;95277.09;5148610;27;20212;-86
2023/01/07 10:47:55;;;;;;;7.00;4.20;;;;;;;8.94;65.49;95266.22;5149496;27;20200;-82
2023/01/07 10:50:36;;;;;;;11.90;4.40;;;;;;;9.18;65.31;95258.69;5143917;27;20212;-85
2023/01/07 10:53:29;;;;;;;12.70;6.15;;;;;;;8.98;64.92;95229.41;5159719;27;20224;-87
2023/01/07 10:56:21;;;;;;;13.95;5.88;;;;;;;9.02;65.11;95222.25;5150185;27;20289;-87
2023/01/07 10:59:17;;;;;;;8.38;4.10;;;;;;;9.13;65.65;95218.25;5164651;27;20254;-86
2023/01/07 11:01:48;;;;;;;16.20;4.88;;;;;;;9.19;65.69;95219.72;5123268;27;20250;-80
2023/01/07 11:04:16;;;;;;;10.15;4.97;;;;;;;9.18;65.72;95220.84;5139708;27;20684;-80
2023/01/07 11:06:47;;;;;;;16.75;4.38;;;;;;;9.39;65.27;95220.41;5126212;27;20216;-80
2023/01/07 11:09:19;;;;;;;8.30;4.75;;;;;;;9.10;65.32;95208.06;5130001;27;20209;-80
2023/01/07 11:11:53;;;;;;;14.05;5.70;;;;;;;9.50;65.33;95224.47;5134328;27;20651;-80
2023/01/07 11:14:44;;;;;;;7.95;3.50;;;;;;;9.49;64.19;95209.34;5146623;27;20257;-81
2023/01/07 11:17:28;;;;;;;8.90;5.28;;;;;;;9.62;64.29;95220.09;5154029;27;20208;-87
2023/01/07 11:19:57;;;;;;;16.50;9.27;;;;;;;9.34;65.16;95234.81;5143900;27;20254;-87
2023/01/07 11:22:32;;;;;;;8.93;4.70;;;;;;;9.57;65.66;95206.69;5150003;27;20728;-84
2023/01/07 11:25:03;;;;;;;6.70;3.25;;;;;;;9.57;64.15;95208.59;5132795;27;20619;-82
2023/01/07 11:27:33;;;;;;;10.27;5.28;;;;;;;9.52;64.96;95214.13;5158806;27;20240;-86
2023/01/07 11:30:04;;;;;;;6.80;4.00;;;;;;;9.58;64.20;95207.50;5145182;27;20186;-83
2023/01/07 11:32:33;;;;;;;9.25;4.72;;;;;;;9.56;64.03;95198.91;5144478;27;20230;-84
2023/01/07 11:35:18;;;;;;;14.68;8.90;;;;;;;9.74;63.57;95195.19;5137835;27;20205;-82
2023/01/07 11:37:49;;;;;;;18.60;9.02;;;;;;;9.79;63.22;95192.38;5117636;28;20677;-86
2023/01/07 11:40:24;;;;;;;8.85;5.38;;;;;;;9.80;63.51;95193.97;5135192;27;20244;-88
2023/01/07 11:42:54;;;;;;;9.82;5.22;;;;;;;9.86;63.82;95192.72;5136960;27;20196;-88
2023/01/07 11:45:26;;;;;;;14.50;7.65;;;;;;;10.08;63.42;95172.19;5143503;27;20200;-89
2023/01/07 11:48:07;;;;;;;9.98;5.47;;;;;;;10.19;63.00;95173.53;5124680;27;20198;-84
2023/01/07 11:50:37;;;;;;;14.65;8.25;;;;;;;10.23;62.27;95177.22;5122005;27;20285;-83
2023/01/07 11:53:21;;;;;;;8.85;5.63;;;;;;;10.41;62.24;95172.66;5116047;28;20288;-86
2023/01/07 11:55:58;;;;;;;20.05;9.30;;;;;;;10.42;61.67;95166.13;5118077;28;20329;-86
2023/01/07 11:58:27;;;;;;;16.77;9.13;;;;;;;10.37;62.49;95169.81;5123031;27;20188;-86
2023/01/07 12:01:11;;;;;;;20.25;10.60;;;;;;;10.50;61.73;95158.06;5121485;27;20205;-85